Aviation Digital Data Service (ADDS)

Output produced by METARs form (1327 UTC 25 May 2015)
found at http://aviationweather.gov/adds/metars/
 
KILG 251133Z 2512/2612 19004KT P6SM BKN200 
     FM251500 22015G24KT P6SM FEW050 SCT200 
     FM260000 18008KT P6SM SCT250